createdAt,value
2022-10-13T00:00:57.147Z,99.90
2022-10-13T00:03:25.164Z,99.90
2022-10-13T00:05:53.244Z,99.90
2022-10-13T00:08:24.450Z,99.90
2022-10-13T00:10:52.733Z,99.90
2022-10-13T00:13:21.619Z,99.90
2022-10-13T00:15:50.234Z,99.90
2022-10-13T00:18:19.785Z,99.90
2022-10-13T00:20:50.120Z,99.90
2022-10-13T00:23:19.251Z,99.90
2022-10-13T00:25:48.989Z,99.90
2022-10-13T00:28:19.589Z,99.90
2022-10-13T00:30:48.712Z,99.90
2022-10-13T00:33:16.739Z,99.90
2022-10-13T00:35:48.608Z,99.90
2022-10-13T00:38:17.795Z,99.90
2022-10-13T00:40:47.455Z,99.90
2022-10-13T00:43:18.746Z,99.90
2022-10-13T00:45:49.884Z,99.90
2022-10-13T00:48:19.856Z,99.90
2022-10-13T00:50:52.028Z,99.90
2022-10-13T00:53:25.576Z,99.90
2022-10-13T00:55:54.452Z,99.90
2022-10-13T00:58:24.321Z,99.90
2022-10-13T01:00:54.253Z,99.90
2022-10-13T01:03:23.397Z,99.90
2022-10-13T01:05:56.629Z,99.90
2022-10-13T01:08:26.974Z,99.90
2022-10-13T01:11:05.207Z,99.90
2022-10-13T01:13:39.435Z,99.90
2022-10-13T01:16:14.203Z,99.90
2022-10-13T01:18:53.542Z,99.90
2022-10-13T01:21:28.781Z,99.90
2022-10-13T01:24:21.821Z,99.90
2022-10-13T01:27:15.274Z,99.90
2022-10-13T01:30:10.565Z,99.90
2022-10-13T01:33:00.655Z,99.90
2022-10-13T01:35:37.934Z,99.90
2022-10-13T01:38:10.289Z,99.90
2022-10-13T01:40:45.945Z,99.90
2022-10-13T01:43:19.217Z,99.90
2022-10-13T01:45:55.330Z,99.90
2022-10-13T01:48:24.135Z,99.90
2022-10-13T01:50:53.279Z,99.90
2022-10-13T01:53:22.525Z,99.90
2022-10-13T01:55:52.418Z,99.90
2022-10-13T01:58:20.426Z,99.90
2022-10-13T02:01:01.357Z,99.90
2022-10-13T02:03:43.965Z,99.90
2022-10-13T02:06:22.052Z,99.90
2022-10-13T02:08:57.916Z,99.90
2022-10-13T02:11:26.138Z,99.90
2022-10-13T02:14:01.103Z,99.90
2022-10-13T02:16:36.156Z,99.90
2022-10-13T02:19:06.579Z,99.90
2022-10-13T02:21:35.259Z,99.90
2022-10-13T02:24:03.972Z,99.90
2022-10-13T02:26:32.745Z,99.90
2022-10-13T02:29:01.501Z,99.90
2022-10-13T02:31:30.784Z,99.90
2022-10-13T02:33:58.818Z,99.90
2022-10-13T02:36:26.885Z,99.90
2022-10-13T02:38:54.782Z,99.90
2022-10-13T02:41:22.781Z,99.90
2022-10-13T02:43:50.732Z,99.90
2022-10-13T02:46:18.729Z,99.90
2022-10-13T02:48:48.077Z,99.90
2022-10-13T02:51:16.173Z,99.90
2022-10-13T02:53:44.285Z,99.90
2022-10-13T02:56:12.360Z,99.90
2022-10-13T02:58:40.430Z,99.90
2022-10-13T03:01:09.747Z,99.90
2022-10-13T03:03:38.204Z,99.90
2022-10-13T03:06:08.786Z,99.90
2022-10-13T03:08:37.161Z,99.90
2022-10-13T03:11:05.197Z,99.90
2022-10-13T03:13:33.557Z,99.90
2022-10-13T03:16:01.504Z,99.90
2022-10-13T03:18:29.523Z,99.90
2022-10-13T03:20:59.226Z,99.90
2022-10-13T03:23:29.114Z,99.90
2022-10-13T03:25:57.185Z,99.90
2022-10-13T03:28:25.292Z,99.90
2022-10-13T03:31:01.798Z,99.90
2022-10-13T03:33:29.981Z,99.90
2022-10-13T03:36:00.097Z,99.90
2022-10-13T03:38:30.046Z,99.90
2022-10-13T03:40:58.024Z,99.90
2022-10-13T03:43:26.157Z,99.90
2022-10-13T03:45:57.742Z,99.90
2022-10-13T03:48:25.987Z,99.90
2022-10-13T03:50:54.140Z,99.90
2022-10-13T03:53:22.667Z,99.90
2022-10-13T03:55:53.352Z,99.90
2022-10-13T03:58:22.413Z,99.90
2022-10-13T04:00:51.201Z,99.90
2022-10-13T04:03:19.629Z,99.90
2022-10-13T04:05:47.920Z,99.90
2022-10-13T04:08:16.108Z,99.90
2022-10-13T04:10:44.077Z,99.90
2022-10-13T04:13:13.469Z,99.90
2022-10-13T04:15:41.843Z,99.90
2022-10-13T04:18:10.146Z,99.90
2022-10-13T04:20:39.921Z,99.90
2022-10-13T04:23:08.392Z,99.90
2022-10-13T04:25:37.239Z,99.90
2022-10-13T04:28:05.776Z,99.90
2022-10-13T04:30:36.100Z,99.90
2022-10-13T04:33:04.330Z,99.90
2022-10-13T04:35:32.461Z,99.90
2022-10-13T04:38:00.529Z,99.90
2022-10-13T04:40:28.495Z,99.90
2022-10-13T04:42:56.521Z,99.90
2022-10-13T04:45:24.489Z,99.90
2022-10-13T04:47:53.818Z,99.90
2022-10-13T04:50:21.912Z,99.90
2022-10-13T04:52:49.850Z,99.90
2022-10-13T04:55:18.042Z,99.90
2022-10-13T04:57:46.037Z,99.90
2022-10-13T05:00:14.926Z,99.90
2022-10-13T05:02:42.936Z,99.90
2022-10-13T05:05:12.680Z,99.90
2022-10-13T05:07:40.675Z,99.90
2022-10-13T05:10:09.133Z,99.90
2022-10-13T05:12:37.328Z,99.90
2022-10-13T05:15:06.223Z,99.90
2022-10-13T05:17:35.500Z,99.90
2022-10-13T05:20:06.193Z,99.90
2022-10-13T05:22:35.514Z,99.90
2022-10-13T05:25:03.600Z,99.90
2022-10-13T05:27:31.589Z,99.90
2022-10-13T05:29:59.533Z,99.90
2022-10-13T05:32:27.507Z,99.90
2022-10-13T05:34:55.440Z,99.90
2022-10-13T05:37:23.544Z,99.90
2022-10-13T05:39:53.070Z,99.90
2022-10-13T05:42:21.449Z,99.90
2022-10-13T05:44:49.830Z,99.90
2022-10-13T05:47:17.867Z,99.90
2022-10-13T05:49:45.928Z,99.90
2022-10-13T05:52:14.201Z,99.90
2022-10-13T05:54:46.797Z,99.90
2022-10-13T05:57:19.558Z,99.90
2022-10-13T05:59:52.267Z,99.90
2022-10-13T06:02:23.283Z,99.90
2022-10-13T06:04:53.966Z,99.90
2022-10-13T06:07:22.156Z,99.90
2022-10-13T06:09:50.847Z,99.90
2022-10-13T06:12:20.516Z,99.90
2022-10-13T06:14:48.959Z,99.90
2022-10-13T06:17:16.949Z,99.90
2022-10-13T06:19:46.075Z,99.90
2022-10-13T06:22:14.113Z,99.90
2022-10-13T06:24:42.085Z,99.90
2022-10-13T06:27:10.353Z,99.90
2022-10-13T06:29:39.858Z,99.90
2022-10-13T06:32:07.911Z,99.90
2022-10-13T06:34:35.931Z,99.90
2022-10-13T06:37:03.914Z,99.90
2022-10-13T06:39:31.974Z,99.90
2022-10-13T06:41:59.978Z,99.90
2022-10-13T06:44:27.953Z,99.90
2022-10-13T06:46:57.386Z,99.90
2022-10-13T06:49:25.877Z,99.90
2022-10-13T06:51:53.969Z,99.90
2022-10-13T06:54:22.260Z,99.90
2022-10-13T06:56:51.242Z,99.90
2022-10-13T06:59:19.237Z,99.90
2022-10-13T07:01:48.622Z,99.90
2022-10-13T07:04:18.068Z,99.90
2022-10-13T07:06:46.155Z,99.90
2022-10-13T07:09:14.261Z,99.90
2022-10-13T07:11:45.270Z,99.90
2022-10-13T07:14:13.540Z,99.90
2022-10-13T07:16:44.787Z,99.90
2022-10-13T07:19:12.711Z,99.90
2022-10-13T07:21:42.024Z,99.90
2022-10-13T07:24:12.305Z,99.90
2022-10-13T07:26:40.446Z,99.90
2022-10-13T07:29:08.956Z,99.90
2022-10-13T07:31:36.940Z,99.90
2022-10-13T07:34:10.372Z,99.90
2022-10-13T07:36:40.708Z,99.90
2022-10-13T07:39:10.866Z,99.90
2022-10-13T07:41:38.862Z,99.90
2022-10-13T07:44:06.871Z,99.90
2022-10-13T07:46:35.114Z,99.90
2022-10-13T07:49:03.190Z,99.90
2022-10-13T07:51:31.152Z,99.90
2022-10-13T07:53:59.142Z,99.90
2022-10-13T07:56:28.516Z,99.90
2022-10-13T07:58:57.596Z,99.90
2022-10-13T08:01:25.821Z,99.90
2022-10-13T08:03:56.772Z,99.90
2022-10-13T08:06:24.929Z,99.90
2022-10-13T08:08:53.603Z,99.90
2022-10-13T08:11:22.092Z,99.90
2022-10-13T08:13:53.014Z,99.90
2022-10-13T08:16:21.759Z,99.90
2022-10-13T08:18:50.485Z,99.90
2022-10-13T08:24:08.765Z,99.90
2022-10-13T08:26:36.749Z,99.90
2022-10-13T08:29:23.473Z,99.90
2022-10-13T08:31:52.550Z,99.90
2022-10-13T08:34:21.265Z,99.90
2022-10-13T08:36:54.922Z,99.90
2022-10-13T08:39:23.809Z,99.90
2022-10-13T08:41:52.319Z,99.90
2022-10-13T08:45:02.748Z,99.90
2022-10-13T08:47:25.505Z,99.90
2022-10-13T08:49:59.103Z,99.90
2022-10-13T08:52:30.610Z,99.90
2022-10-13T08:55:01.439Z,99.90
2022-10-13T08:57:29.444Z,99.90
2022-10-13T08:59:58.821Z,99.90
2022-10-13T09:02:32.411Z,99.90
2022-10-13T09:05:03.381Z,99.90
2022-10-13T09:07:36.216Z,99.90
2022-10-13T09:10:05.476Z,99.90
2022-10-13T09:12:34.016Z,99.90
2022-10-13T09:15:06.011Z,99.90
2022-10-13T09:17:35.772Z,99.90
2022-10-13T09:20:07.735Z,99.90
2022-10-13T09:22:37.169Z,99.90
2022-10-13T09:25:21.283Z,99.90
2022-10-13T09:27:50.990Z,99.80
2022-10-13T09:30:31.150Z,99.90
2022-10-13T09:33:27.026Z,99.90
2022-10-13T09:36:14.459Z,99.20
2022-10-13T09:39:04.451Z,98.80
2022-10-13T09:41:32.872Z,98.40
2022-10-13T09:44:10.834Z,98.00
2022-10-13T09:46:49.544Z,98.10
2022-10-13T09:49:35.641Z,97.70
2022-10-13T09:52:05.991Z,97.50
2022-10-13T09:54:46.683Z,97.30
2022-10-13T09:57:26.510Z,97.30
2022-10-13T09:59:59.940Z,96.90
2022-10-13T10:02:36.839Z,97.10
2022-10-13T10:05:15.112Z,97.30
2022-10-13T10:07:43.460Z,97.20
2022-10-13T10:10:26.716Z,97.20
2022-10-13T10:12:55.241Z,97.40
2022-10-13T10:15:31.318Z,97.20
2022-10-13T10:18:05.338Z,97.20
2022-10-13T10:20:59.981Z,97.20
2022-10-13T10:23:40.684Z,97.80
2022-10-13T10:26:18.179Z,97.40
2022-10-13T10:29:14.556Z,97.20
2022-10-13T10:32:08.866Z,97.20
2022-10-13T10:34:43.576Z,97.00
2022-10-13T10:37:21.440Z,96.30
2022-10-13T10:40:03.643Z,96.80
2022-10-13T10:42:59.566Z,96.10
2022-10-13T10:45:29.537Z,95.80
2022-10-13T10:48:01.515Z,94.80
2022-10-13T10:50:32.067Z,95.10
2022-10-13T10:53:06.120Z,96.00
2022-10-13T10:55:41.003Z,95.30
2022-10-13T10:58:23.563Z,95.80
2022-10-13T11:00:59.898Z,95.60
2022-10-13T11:03:41.328Z,95.70
2022-10-13T11:06:34.201Z,95.60
2022-10-13T11:09:03.013Z,95.30
2022-10-13T11:11:44.251Z,95.10
2022-10-13T11:14:32.284Z,94.90
2022-10-13T11:17:11.007Z,94.80
2022-10-13T11:19:40.026Z,94.70
2022-10-13T11:22:22.130Z,94.30
2022-10-13T11:24:59.717Z,94.20
2022-10-13T11:27:39.916Z,94.30
2022-10-13T11:30:50.329Z,94.00
2022-10-13T11:33:36.427Z,94.10
2022-10-13T11:36:42.538Z,93.30
2022-10-13T11:39:41.319Z,92.60
2022-10-13T11:42:27.463Z,92.10
2022-10-13T11:44:57.984Z,91.70
2022-10-13T11:47:54.847Z,91.40
2022-10-13T11:50:29.920Z,90.80
2022-10-13T11:53:08.041Z,90.10
2022-10-13T11:55:45.028Z,90.70
2022-10-13T11:58:17.513Z,90.70
2022-10-13T12:00:59.132Z,90.50
2022-10-13T12:03:30.837Z,90.30
2022-10-13T12:06:05.575Z,90.40
2022-10-13T12:08:36.080Z,90.40
2022-10-13T12:11:08.387Z,90.40
2022-10-13T12:13:37.958Z,90.00
2022-10-13T12:16:08.483Z,89.80
2022-10-13T12:18:39.220Z,89.30
2022-10-13T12:21:12.792Z,89.10
2022-10-13T12:23:41.453Z,88.60
2022-10-13T12:26:14.972Z,87.80
2022-10-13T12:28:50.297Z,87.60
2022-10-13T12:31:22.040Z,88.20
2022-10-13T12:33:55.828Z,88.00
2022-10-13T12:36:30.276Z,87.80
2022-10-13T12:39:01.973Z,87.30
2022-10-13T12:41:32.974Z,88.00
2022-10-13T12:44:04.033Z,88.60
2022-10-13T12:46:38.757Z,89.00
2022-10-13T12:49:08.795Z,88.90
2022-10-13T12:51:39.461Z,88.50
2022-10-13T12:54:09.539Z,88.10
2022-10-13T12:56:37.662Z,87.70
2022-10-13T12:59:05.738Z,87.80
2022-10-13T13:01:35.141Z,88.50
2022-10-13T13:04:17.703Z,88.70
2022-10-13T13:06:56.503Z,88.60
2022-10-13T13:09:29.545Z,88.10
2022-10-13T13:12:20.928Z,88.30
2022-10-13T13:14:49.811Z,88.80
2022-10-13T13:17:52.800Z,89.10
2022-10-13T13:20:25.997Z,89.40
2022-10-13T13:22:55.666Z,89.60
2022-10-13T13:25:24.042Z,89.60
2022-10-13T13:27:52.913Z,90.50
2022-10-13T13:30:22.537Z,91.00
2022-10-13T13:32:50.684Z,91.10
2022-10-13T13:35:19.003Z,91.30
2022-10-13T13:37:52.478Z,90.50
2022-10-13T13:40:23.691Z,90.60
2022-10-13T13:42:51.939Z,90.60
2022-10-13T13:45:21.715Z,90.70
2022-10-13T13:47:49.923Z,90.80
2022-10-13T13:50:20.441Z,90.70
2022-10-13T13:52:48.566Z,90.80
2022-10-13T13:55:16.892Z,90.90
2022-10-13T13:57:46.949Z,90.80
2022-10-13T14:00:17.392Z,90.50
2022-10-13T14:02:46.131Z,90.50
2022-10-13T14:05:14.555Z,90.40
2022-10-13T14:07:42.678Z,90.10
2022-10-13T14:10:11.630Z,90.20
2022-10-13T14:12:39.846Z,90.20
2022-10-13T14:15:10.546Z,90.00
2022-10-13T14:17:38.629Z,89.80
2022-10-13T14:20:07.705Z,89.40
2022-10-13T14:22:39.141Z,89.70
2022-10-13T14:25:08.347Z,90.10
2022-10-13T14:27:37.053Z,90.50
2022-10-13T14:30:05.437Z,90.60
2022-10-13T14:32:35.260Z,91.00
2022-10-13T14:35:03.594Z,91.10
2022-10-13T14:37:33.635Z,90.90
2022-10-13T14:40:02.058Z,91.00
2022-10-13T14:42:30.027Z,91.20
2022-10-13T14:44:57.978Z,91.20
2022-10-13T14:47:26.002Z,91.10
2022-10-13T14:49:57.744Z,91.20
2022-10-13T14:52:25.699Z,91.40
2022-10-13T14:54:53.678Z,91.50
2022-10-13T14:57:22.068Z,91.70
2022-10-13T14:59:50.175Z,92.00
2022-10-13T15:02:18.365Z,92.20
2022-10-13T15:04:46.309Z,92.30
2022-10-13T15:07:15.765Z,92.50
2022-10-13T15:09:52.819Z,92.70
2022-10-13T15:12:21.948Z,92.60
2022-10-13T15:14:50.145Z,92.50
2022-10-13T15:17:18.152Z,92.50
2022-10-13T15:19:46.253Z,93.10
2022-10-13T15:22:16.520Z,92.90
2022-10-13T15:24:48.479Z,93.30
2022-10-13T15:27:23.390Z,93.40
2022-10-13T15:29:51.471Z,93.20
2022-10-13T15:32:21.075Z,93.50
2022-10-13T15:34:49.341Z,93.60
2022-10-13T15:37:18.724Z,93.90
2022-10-13T15:39:46.702Z,94.10
2022-10-13T15:42:14.676Z,94.30
2022-10-13T15:45:09.216Z,94.60
2022-10-13T15:47:30.827Z,94.90
2022-10-13T15:49:58.786Z,94.80
2022-10-13T15:52:33.732Z,93.90
2022-10-13T15:55:02.908Z,94.10
2022-10-13T15:57:31.980Z,93.90
2022-10-13T15:59:59.928Z,94.40
2022-10-13T16:02:28.002Z,94.10
2022-10-13T16:04:56.849Z,94.30
2022-10-13T16:07:24.882Z,94.30
2022-10-13T16:09:54.244Z,93.90
2022-10-13T16:12:24.254Z,93.40
2022-10-13T16:14:52.401Z,93.10
2022-10-13T16:17:20.882Z,93.40
2022-10-13T16:19:49.044Z,93.00
2022-10-13T16:22:17.122Z,93.60
2022-10-13T16:24:45.192Z,93.70
2022-10-13T16:27:14.489Z,94.10
2022-10-13T16:29:42.468Z,94.50
2022-10-13T16:32:10.714Z,95.00
2022-10-13T16:34:38.745Z,95.50
2022-10-13T16:37:06.947Z,95.60
2022-10-13T16:39:37.527Z,95.90
2022-10-13T16:42:07.993Z,96.40
2022-10-13T16:44:37.410Z,96.90
2022-10-13T16:47:06.457Z,97.20
2022-10-13T16:49:35.029Z,97.70
2022-10-13T16:52:03.185Z,97.80
2022-10-13T16:54:32.797Z,98.00
2022-10-13T16:57:00.859Z,98.20
2022-10-13T16:59:29.103Z,98.30
2022-10-13T17:01:59.352Z,98.50
2022-10-13T17:04:27.612Z,98.60
2022-10-13T17:06:55.711Z,98.60
2022-10-13T17:09:23.619Z,98.80
2022-10-13T17:11:51.624Z,99.00
2022-10-13T17:14:20.221Z,99.00
2022-10-13T17:16:48.227Z,99.20
2022-10-13T17:19:17.502Z,99.40
2022-10-13T17:21:45.656Z,99.40
2022-10-13T17:24:13.847Z,99.20
2022-10-13T17:26:41.858Z,99.80
2022-10-13T17:29:09.815Z,99.80
2022-10-13T17:31:37.787Z,99.90
2022-10-13T17:34:06.271Z,99.90
2022-10-13T17:36:36.251Z,99.90
2022-10-13T17:39:06.861Z,99.90
2022-10-13T17:41:35.383Z,99.90
2022-10-13T17:44:03.824Z,99.90
2022-10-13T17:46:38.241Z,99.90
2022-10-13T17:49:07.868Z,99.90
2022-10-13T17:51:37.198Z,99.90
2022-10-13T17:54:05.746Z,99.90
2022-10-13T17:56:33.811Z,99.90
2022-10-13T17:59:02.901Z,99.90
2022-10-13T18:01:32.640Z,99.90
2022-10-13T18:04:02.499Z,99.90
2022-10-13T18:06:37.699Z,99.90
2022-10-13T18:09:09.266Z,99.90
2022-10-13T18:11:38.598Z,99.90
2022-10-13T18:14:07.387Z,99.90
2022-10-13T18:16:36.734Z,99.90
2022-10-13T18:19:05.220Z,99.90
2022-10-13T18:21:33.434Z,99.90
2022-10-13T18:24:03.347Z,99.90
2022-10-13T18:26:35.804Z,99.90
2022-10-13T18:29:05.781Z,99.90
2022-10-13T18:31:35.793Z,99.90
2022-10-13T18:34:05.240Z,99.90
2022-10-13T18:36:35.400Z,99.90
2022-10-13T18:39:05.793Z,99.90
2022-10-13T18:41:36.896Z,99.90
2022-10-13T18:44:05.572Z,99.90
2022-10-13T18:46:34.552Z,99.90
2022-10-13T18:49:05.190Z,99.90
2022-10-13T18:51:36.219Z,99.90
2022-10-13T18:54:05.496Z,99.90
2022-10-13T18:56:37.155Z,99.90
2022-10-13T18:59:06.995Z,99.90
2022-10-13T19:01:36.400Z,99.90
2022-10-13T19:04:05.088Z,99.90
2022-10-13T19:06:33.591Z,99.90
2022-10-13T19:09:03.717Z,99.90
2022-10-13T19:11:34.223Z,99.90
2022-10-13T19:14:07.006Z,99.90
2022-10-13T19:16:38.763Z,99.90
2022-10-13T19:19:08.015Z,99.90
2022-10-13T19:21:36.487Z,99.90
2022-10-13T19:24:04.878Z,99.90
2022-10-13T19:26:35.809Z,99.90
2022-10-13T19:29:06.674Z,99.90
2022-10-13T19:31:39.394Z,99.90
2022-10-13T19:34:07.514Z,99.90
2022-10-13T19:36:37.505Z,99.90
2022-10-13T19:39:11.813Z,99.90
2022-10-13T19:41:41.449Z,99.90
2022-10-13T19:44:09.398Z,99.90
2022-10-13T19:46:40.368Z,99.90
2022-10-13T19:49:08.366Z,99.90
2022-10-13T19:51:36.443Z,99.90
2022-10-13T19:54:07.488Z,99.90
2022-10-13T19:56:37.245Z,99.90
2022-10-13T19:59:08.312Z,99.90
2022-10-13T20:01:39.957Z,99.90
2022-10-13T20:04:08.671Z,99.90
2022-10-13T20:06:37.309Z,99.90
2022-10-13T20:09:05.894Z,99.90
2022-10-13T20:11:33.888Z,99.90
2022-10-13T20:14:01.857Z,99.90
2022-10-13T20:16:32.185Z,99.90
2022-10-13T20:19:02.144Z,99.90
2022-10-13T20:21:30.491Z,99.90
2022-10-13T20:23:58.829Z,99.90
2022-10-13T20:26:27.821Z,99.90
2022-10-13T20:28:58.374Z,99.90
2022-10-13T20:31:28.047Z,99.90
2022-10-13T20:34:02.287Z,99.90
2022-10-13T20:36:38.307Z,99.90
2022-10-13T20:39:11.406Z,99.90
2022-10-13T20:41:40.904Z,99.90
2022-10-13T20:44:13.638Z,99.90
2022-10-13T20:46:42.441Z,99.90
2022-10-13T20:49:13.069Z,99.90
2022-10-13T20:51:41.683Z,99.90
2022-10-13T20:54:09.805Z,99.90
2022-10-13T20:56:37.857Z,99.90
2022-10-13T20:59:06.991Z,99.90
2022-10-13T21:01:35.093Z,99.90
2022-10-13T21:04:03.049Z,99.90
2022-10-13T21:06:32.903Z,99.90
2022-10-13T21:09:00.877Z,99.90
2022-10-13T21:11:28.917Z,99.90
2022-10-13T21:13:57.532Z,99.90
2022-10-13T21:16:27.449Z,99.90
2022-10-13T21:18:58.310Z,99.90
2022-10-13T21:21:29.334Z,99.90
2022-10-13T21:24:00.884Z,99.90
2022-10-13T21:26:30.485Z,99.90
2022-10-13T21:28:59.099Z,99.90
2022-10-13T21:31:28.457Z,99.90
2022-10-13T21:33:56.891Z,99.90
2022-10-13T21:36:26.298Z,99.90
2022-10-13T21:38:56.495Z,99.90
2022-10-13T21:41:26.541Z,99.90
2022-10-13T21:43:55.445Z,99.90
2022-10-13T21:46:25.329Z,99.90
2022-10-13T21:48:57.715Z,99.90
2022-10-13T21:51:29.966Z,99.90
2022-10-13T21:54:02.298Z,99.90
2022-10-13T21:56:35.006Z,99.90
2022-10-13T21:59:04.443Z,99.90
2022-10-13T22:01:32.904Z,99.90
2022-10-13T22:04:02.883Z,99.90
2022-10-13T22:06:34.667Z,99.90
2022-10-13T22:09:07.359Z,99.90
2022-10-13T22:11:56.356Z,99.90
2022-10-13T22:14:41.488Z,99.90
2022-10-13T22:17:12.423Z,99.90
2022-10-13T22:19:40.442Z,99.90
2022-10-13T22:22:08.396Z,99.90
2022-10-13T22:24:36.384Z,99.90
2022-10-13T22:27:05.725Z,99.90
2022-10-13T22:29:33.687Z,99.90
2022-10-13T22:32:01.727Z,99.90
2022-10-13T22:34:29.696Z,99.90
2022-10-13T22:36:57.877Z,99.90
2022-10-13T22:39:25.827Z,99.90
2022-10-13T22:41:53.940Z,99.90
2022-10-13T22:44:23.288Z,99.90
2022-10-13T22:46:51.699Z,99.90
2022-10-13T22:49:19.631Z,99.90
2022-10-13T22:51:48.032Z,99.90
2022-10-13T22:54:16.094Z,99.90
2022-10-13T22:56:45.079Z,99.90
2022-10-13T22:59:14.003Z,99.90
2022-10-13T23:01:43.342Z,99.90
2022-10-13T23:04:11.359Z,99.90
2022-10-13T23:06:39.516Z,99.90
2022-10-13T23:09:09.217Z,99.90
2022-10-13T23:11:37.578Z,99.90
2022-10-13T23:14:05.676Z,99.90
2022-10-13T23:16:33.765Z,99.90
2022-10-13T23:19:03.617Z,99.90
2022-10-13T23:21:31.968Z,99.90
2022-10-13T23:24:02.086Z,99.90
2022-10-13T23:26:31.116Z,99.90
2022-10-13T23:28:59.673Z,99.90
2022-10-13T23:31:29.169Z,99.90
2022-10-13T23:33:57.183Z,99.90
2022-10-13T23:36:28.770Z,99.90
2022-10-13T23:38:58.251Z,99.90
2022-10-13T23:41:26.943Z,99.90
2022-10-13T23:43:55.148Z,99.90
2022-10-13T23:46:23.110Z,99.90
2022-10-13T23:48:51.109Z,99.90
2022-10-13T23:51:21.480Z,99.90
2022-10-13T23:53:50.981Z,99.90
2022-10-13T23:56:19.362Z,99.90
2022-10-13T23:58:47.968Z,99.90
